Time;durP1;ratioP1;P1;durP2;ratioP2;P2;SDS_P1;SDS_P2;PMS_P1;PMS_P2;Temp;Humidity;BMP_temperature;BMP_pressure;BME280_temperature;BME280_humidity;BME280_pressure;Samples;Min_cycle;Max_cycle;Signal;HPM_P1;HPM_P2
2023/08/09 00:00:32;;;;;;;2.05;0.75;;;;;;;16.41;51.06;97596.69;10284389;28;20074;-74
2023/08/09 00:06:08;;;;;;;1.55;0.57;;;;;;;16.40;51.14;97597.31;10275448;28;20053;-75
2023/08/09 00:11:29;;;;;;;2.78;0.65;;;;;;;16.37;51.37;97588.06;10298121;28;20118;-75
2023/08/09 00:16:50;;;;;;;1.52;0.73;;;;;;;16.38;51.37;97595.16;10284164;28;20074;-75
2023/08/09 00:22:10;;;;;;;3.13;0.60;;;;;;;16.28;51.78;97587.00;10284600;28;20085;-75
2023/08/09 00:27:31;;;;;;;2.15;0.47;;;;;;;16.26;51.91;97589.72;10283930;28;20508;-75
2023/08/09 00:32:52;;;;;;;2.90;0.70;;;;;;;16.23;52.26;97591.00;10296885;28;20074;-75
2023/08/09 00:38:13;;;;;;;2.35;0.68;;;;;;;16.25;52.27;97588.28;10283639;28;20174;-75
2023/08/09 00:43:34;;;;;;;4.10;0.57;;;;;;;16.26;52.22;97603.81;10284796;28;20474;-75
2023/08/09 00:48:56;;;;;;;7.03;0.93;;;;;;;16.23;52.42;97598.75;10285369;28;20125;-75
2023/08/09 00:54:17;;;;;;;1.73;0.52;;;;;;;16.23;52.51;97591.00;10271318;28;20061;-76
2023/08/09 00:59:38;;;;;;;1.73;0.60;;;;;;;16.17;52.55;97587.94;10276115;28;20086;-78
2023/08/09 01:05:03;;;;;;;1.40;0.50;;;;;;;16.17;52.78;97596.38;10266152;28;20042;-76
2023/08/09 01:10:29;;;;;;;6.05;0.60;;;;;;;16.24;52.73;97603.72;10283299;28;20105;-75
2023/08/09 01:15:50;;;;;;;1.50;0.50;;;;;;;16.25;52.99;97582.66;10282238;28;20141;-75
2023/08/09 01:21:10;;;;;;;1.58;0.50;;;;;;;16.23;53.10;97581.84;10281229;28;20500;-75
2023/08/09 01:26:31;;;;;;;1.60;0.60;;;;;;;16.22;53.13;97586.75;10268049;28;20075;-75
2023/08/09 01:31:52;;;;;;;3.47;0.80;;;;;;;16.21;53.31;97579.66;10280640;28;20136;-74
2023/08/09 01:37:45;;;;;;;1.90;0.52;;;;;;;16.13;53.73;97582.13;10280459;28;20070;-75
2023/08/09 01:43:06;;;;;;;3.35;0.60;;;;;;;16.12;53.53;97579.97;10280512;28;20130;-75
2023/08/09 01:48:27;;;;;;;1.95;0.60;;;;;;;16.14;53.36;97572.31;10279401;28;20039;-75
2023/08/09 01:53:47;;;;;;;1.30;0.60;;;;;;;16.13;53.83;97568.06;10279926;28;20078;-75
2023/08/09 01:59:09;;;;;;;2.10;0.60;;;;;;;16.15;53.83;97559.69;10293349;28;20075;-75
2023/08/09 02:04:30;;;;;;;2.63;0.50;;;;;;;16.15;53.84;97550.50;10279993;28;20099;-75
2023/08/09 02:09:51;;;;;;;1.10;0.45;;;;;;;16.17;53.93;97548.50;10279376;28;20047;-75
2023/08/09 02:15:11;;;;;;;3.47;0.63;;;;;;;16.11;53.89;97527.81;10293801;28;20126;-74
2023/08/09 02:20:34;;;;;;;3.00;0.63;;;;;;;16.04;53.99;97526.84;10280010;28;20456;-75
2023/08/09 02:25:55;;;;;;;3.88;0.70;;;;;;;15.96;54.24;97532.84;10279403;28;20493;-75
2023/08/09 02:31:18;;;;;;;4.13;0.60;;;;;;;15.97;54.47;97537.09;10266663;28;20058;-75
2023/08/09 02:36:39;;;;;;;1.08;0.38;;;;;;;16.01;54.38;97542.19;10279408;28;20117;-75
2023/08/09 02:42:00;;;;;;;2.92;0.65;;;;;;;15.98;54.67;97537.81;10293554;28;20163;-75
2023/08/09 02:47:23;;;;;;;3.10;0.60;;;;;;;15.92;54.30;97521.41;10280016;28;20433;-75
2023/08/09 02:52:43;;;;;;;3.22;0.40;;;;;;;15.92;54.88;97517.84;10292339;28;20122;-75
2023/08/09 02:58:04;;;;;;;3.75;0.63;;;;;;;15.91;55.28;97519.94;10292796;28;20077;-75
2023/08/09 03:03:25;;;;;;;1.98;0.60;;;;;;;15.90;55.06;97500.88;10285491;28;20087;-75
2023/08/09 03:08:47;;;;;;;2.53;0.70;;;;;;;15.80;55.66;97497.63;10293633;28;20073;-75
2023/08/09 03:14:10;;;;;;;1.55;0.60;;;;;;;15.81;55.91;97501.91;10294033;28;20066;-77
2023/08/09 03:19:30;;;;;;;3.05;0.63;;;;;;;15.77;56.16;97496.09;10290971;28;20057;-75
2023/08/09 03:24:51;;;;;;;1.15;0.50;;;;;;;15.81;56.60;97501.91;10288965;28;20070;-75
2023/08/09 03:30:13;;;;;;;1.55;0.68;;;;;;;15.74;56.62;97510.09;10273392;28;20066;-75
2023/08/09 03:35:34;;;;;;;2.80;0.80;;;;;;;15.71;56.98;97505.72;10287041;28;20070;-75
2023/08/09 03:40:55;;;;;;;3.00;0.65;;;;;;;15.63;57.62;97510.25;10286094;28;20070;-75
2023/08/09 03:46:17;;;;;;;2.25;0.60;;;;;;;15.69;58.14;97528.16;10286335;28;20069;-75
2023/08/09 03:51:38;;;;;;;2.83;0.82;;;;;;;15.73;59.10;97531.16;10286075;28;20093;-75
2023/08/09 03:56:59;;;;;;;5.22;0.90;;;;;;;15.65;58.82;97535.69;10285663;28;20078;-74
2023/08/09 04:02:21;;;;;;;2.50;0.77;;;;;;;15.58;60.21;97542.38;10272835;28;20054;-75
2023/08/09 04:07:42;;;;;;;4.90;0.90;;;;;;;15.38;60.57;97531.66;10271609;28;20043;-75
2023/08/09 04:13:03;;;;;;;4.53;0.85;;;;;;;15.27;60.96;97523.41;10298179;28;20043;-75
2023/08/09 04:18:24;;;;;;;2.55;0.70;;;;;;;15.07;61.83;97520.41;10297139;28;20047;-75
2023/08/09 04:23:45;;;;;;;3.25;1.10;;;;;;;14.93;62.86;97514.81;10270233;28;20042;-75
2023/08/09 04:29:07;;;;;;;2.92;0.85;;;;;;;14.87;63.11;97520.19;10296746;28;20050;-74
2023/08/09 04:34:29;;;;;;;4.35;1.00;;;;;;;14.64;65.39;97523.28;10296255;28;20042;-74
2023/08/09 04:39:49;;;;;;;1.83;0.75;;;;;;;14.40;67.31;97520.72;10296198;28;20433;-75
2023/08/09 04:45:11;;;;;;;2.88;1.02;;;;;;;14.20;68.84;97516.91;10282567;28;20478;-75
2023/08/09 04:50:32;;;;;;;6.13;1.10;;;;;;;14.19;70.18;97515.47;10282746;28;20119;-75
2023/08/09 04:55:53;;;;;;;3.30;0.88;;;;;;;14.20;71.15;97502.88;10295791;28;20050;-75
2023/08/09 05:01:14;;;;;;;3.03;1.00;;;;;;;14.16;72.41;97502.66;10282107;28;20047;-75
2023/08/09 05:06:35;;;;;;;2.40;0.90;;;;;;;14.12;73.23;97503.19;10281878;28;20445;-74
2023/08/09 05:11:58;;;;;;;3.28;0.73;;;;;;;14.05;74.84;97490.22;10268205;28;20050;-75
2023/08/09 05:17:19;;;;;;;3.33;1.10;;;;;;;14.01;75.00;97504.78;10294946;28;20038;-75
2023/08/09 05:22:40;;;;;;;4.43;1.27;;;;;;;13.94;76.52;97508.63;10281214;28;20047;-75
2023/08/09 05:28:01;;;;;;;2.83;1.00;;;;;;;14.00;77.37;97513.81;10280819;28;20038;-75
2023/08/09 05:33:22;;;;;;;4.28;0.98;;;;;;;14.01;77.62;97512.47;10294210;28;20481;-75
2023/08/09 05:38:42;;;;;;;3.75;1.17;;;;;;;13.91;78.78;97509.16;10280644;28;20046;-75
2023/08/09 05:44:04;;;;;;;3.33;1.15;;;;;;;13.85;79.94;97517.25;10293949;28;20050;-75
2023/08/09 05:49:25;;;;;;;3.90;1.85;;;;;;;13.87;81.18;97504.03;10267069;28;20046;-75
2023/08/09 05:54:46;;;;;;;3.78;1.08;;;;;;;14.01;81.77;97510.38;10280081;28;20042;-75
2023/08/09 06:00:15;;;;;;;3.88;1.00;;;;;;;13.94;82.36;97503.00;10280446;28;20070;-75
2023/08/09 06:05:36;;;;;;;3.30;0.93;;;;;;;13.94;83.51;97497.41;10294253;28;20039;-74
2023/08/09 06:10:57;;;;;;;4.07;1.00;;;;;;;13.88;83.92;97491.47;10267137;28;20514;-75
2023/08/09 06:16:18;;;;;;;2.72;0.98;;;;;;;13.92;84.80;97497.31;10280376;28;20118;-75
2023/08/09 06:21:39;;;;;;;2.80;1.20;;;;;;;14.01;85.63;97490.75;10280249;28;20050;-73
2023/08/09 06:27:00;;;;;;;4.45;0.90;;;;;;;14.26;86.10;97483.50;10262616;28;20058;-74
2023/08/09 06:32:21;;;;;;;2.35;0.88;;;;;;;14.43;85.77;97491.38;10293768;28;20069;-74
2023/08/09 06:37:43;;;;;;;2.03;0.70;;;;;;;14.41;85.83;97494.09;10286000;28;20122;-74
2023/08/09 06:43:03;;;;;;;2.05;0.60;;;;;;;14.43;86.36;97491.38;10300585;28;20054;-74
2023/08/09 06:48:25;;;;;;;3.63;0.90;;;;;;;14.46;86.08;97478.19;10288207;28;20489;-74
2023/08/09 06:53:47;;;;;;;3.15;0.80;;;;;;;14.63;86.29;97488.13;10298989;28;20043;-75
2023/08/09 06:59:07;;;;;;;1.83;0.70;;;;;;;14.49;86.37;97497.31;10309357;28;20482;-73
2023/08/09 07:04:28;;;;;;;2.15;0.85;;;;;;;14.68;87.21;97482.06;10285026;28;20066;-73
2023/08/09 07:09:49;;;;;;;2.50;0.80;;;;;;;15.08;87.02;97474.78;10297476;28;20106;-74
2023/08/09 07:15:11;;;;;;;2.83;1.02;;;;;;;15.14;85.67;97468.69;10292922;28;20512;-75
2023/08/09 07:20:32;;;;;;;2.53;0.70;;;;;;;15.08;85.43;97474.78;10299391;28;20070;-74
2023/08/09 07:25:53;;;;;;;4.03;1.33;;;;;;;14.91;86.08;97481.00;10298722;28;20066;-74
2023/08/09 07:31:22;;;;;;;2.92;0.70;;;;;;;14.93;86.79;97475.47;10285064;28;20050;-74
2023/08/09 07:36:43;;;;;;;2.17;0.70;;;;;;;14.92;86.37;97482.47;10298092;28;20050;-74
2023/08/09 07:42:04;;;;;;;2.05;0.60;;;;;;;15.00;87.15;97484.94;10295834;28;20536;-75
2023/08/09 07:47:25;;;;;;;2.38;0.60;;;;;;;15.09;87.28;97481.13;10295816;28;20054;-74
2023/08/09 07:52:46;;;;;;;3.47;0.73;;;;;;;15.11;86.99;97487.56;10283544;28;20047;-74
2023/08/09 07:58:07;;;;;;;1.80;0.60;;;;;;;15.25;86.91;97484.69;10295897;28;20149;-74
2023/08/09 08:03:29;;;;;;;1.55;0.70;;;;;;;15.52;85.94;97483.03;10289323;28;20070;-74
2023/08/09 08:08:51;;;;;;;0.98;0.45;;;;;;;15.87;85.61;97476.84;10295686;28;20074;-73
2023/08/09 08:14:12;;;;;;;1.15;0.50;;;;;;;16.59;84.36;97492.47;10295073;28;20145;-74
2023/08/09 08:19:34;;;;;;;4.73;0.70;;;;;;;17.15;81.39;97491.16;10295817;28;20509;-74
2023/08/09 08:24:55;;;;;;;0.95;0.50;;;;;;;16.87;80.60;97495.72;10295530;28;20165;-74
2023/08/09 08:30:18;;;;;;;1.38;0.73;;;;;;;16.61;80.97;97498.22;10274250;28;20074;-74
2023/08/09 08:35:43;;;;;;;3.75;1.02;;;;;;;16.80;80.58;97508.84;10281887;28;20071;-74
2023/08/09 08:41:05;;;;;;;4.13;0.50;;;;;;;17.19;80.26;97510.34;10294678;28;20485;-73
2023/08/09 08:46:25;;;;;;;3.47;0.80;;;;;;;17.45;79.36;97519.78;10281618;28;20078;-73
2023/08/09 08:51:47;;;;;;;1.52;0.50;;;;;;;17.68;78.25;97529.06;10281126;28;20122;-74
2023/08/09 08:57:08;;;;;;;0.80;0.45;;;;;;;17.43;77.82;97522.53;10254048;28;20401;-75
2023/08/09 09:02:32;;;;;;;1.25;0.50;;;;;;;16.98;77.95;97525.75;10294110;28;20051;-75
2023/08/09 09:07:56;;;;;;;3.17;0.50;;;;;;;17.02;78.63;97525.19;10280399;28;20051;-74
2023/08/09 09:13:27;;;;;;;2.03;0.60;;;;;;;17.13;78.51;97560.88;10292914;28;20073;-74
2023/08/09 09:18:48;;;;;;;1.77;0.30;;;;;;;16.76;78.49;97567.16;10280435;28;20102;-74
2023/08/09 09:24:09;;;;;;;0.38;0.10;;;;;;;16.44;78.61;97581.34;10293583;28;20082;-73
2023/08/09 09:29:33;;;;;;;0.70;0.10;;;;;;;16.83;78.52;97580.13;10293016;28;20058;-73
2023/08/09 09:34:53;;;;;;;2.55;0.70;;;;;;;17.06;77.79;97587.38;10253009;28;20081;-73
2023/08/09 09:40:31;;;;;;;7.43;5.65;;;;;;;24.14;83.62;97574.44;10262092;28;20066;-74
2023/08/09 09:45:57;;;;;;;1.85;0.10;;;;;;;35.88;60.32;97593.75;10255162;28;20455;-74
2023/08/09 09:51:18;;;;;;;2.10;0.00;;;;;;;42.17;34.12;97592.34;10244404;29;20063;-75
2023/08/09 09:56:38;;;;;;;0.20;0.05;;;;;;;42.35;25.60;97583.94;10259269;28;20043;-75
2023/08/09 10:01:59;;;;;;;0.77;0.00;;;;;;;45.09;21.95;97582.09;10281067;28;20082;-74
2023/08/09 10:07:20;;;;;;;0.97;0.00;;;;;;;48.27;17.24;97589.56;10284853;28;20101;-75
2023/08/09 10:12:43;;;;;;;2.58;0.00;;;;;;;48.30;14.65;97581.19;10252197;28;20803;-75
2023/08/09 10:18:10;;;;;;;0.20;0.00;;;;;;;44.28;15.26;97579.84;10232644;28;20413;-76
2023/08/09 10:23:33;;;;;;;0.38;0.00;;;;;;;38.91;18.82;97580.34;10261250;28;20066;-76
2023/08/09 10:29:01;;;;;;;;;;;;;;;42.05;17.35;97583.59;10252921;28;20406;-76
2023/08/09 10:34:42;;;;;;;0.32;0.00;;;;;;;44.26;15.00;97580.00;10253215;29;19965;-77
2023/08/09 10:40:16;;;;;;;0.17;0.00;;;;;;;44.61;14.74;97580.50;10254209;28;20050;-74
2023/08/09 10:45:37;;;;;;;0.08;0.00;;;;;;;43.67;14.22;97595.84;10287105;28;20066;-75
2023/08/09 10:51:07;;;;;;;0.50;0.00;;;;;;;42.60;15.55;97601.44;10278501;28;20070;-75
2023/08/09 10:56:41;;;;;;;1.33;0.00;;;;;;;39.60;17.46;97596.66;10269384;28;20071;-75
2023/08/09 11:02:02;;;;;;;0.52;0.05;;;;;;;35.43;21.10;97609.84;10281278;28;20063;-74
2023/08/09 11:07:23;;;;;;;0.43;0.00;;;;;;;31.74;24.79;97612.13;10287181;28;20066;-73
2023/08/09 11:12:47;;;;;;;0.10;0.00;;;;;;;29.80;27.85;97612.03;10261752;28;20453;-76
2023/08/09 11:18:08;;;;;;;0.50;0.10;;;;;;;29.61;28.81;97608.63;10261580;28;20050;-74
2023/08/09 11:23:30;;;;;;;0.20;0.03;;;;;;;29.03;28.87;97619.19;10264292;28;20456;-71
2023/08/09 11:28:51;;;;;;;0.30;0.10;;;;;;;29.69;29.24;97619.34;10275685;28;20039;-77
2023/08/09 11:34:14;;;;;;;0.30;0.10;;;;;;;29.23;29.02;97638.41;10256397;28;20110;-75
2023/08/09 11:39:35;;;;;;;0.20;0.10;;;;;;;28.58;30.13;97638.88;10258214;28;20075;-74
2023/08/09 11:44:55;;;;;;;0.28;0.00;;;;;;;28.36;30.54;97641.81;10274260;28;20122;-71
2023/08/09 11:50:21;;;;;;;0.35;0.10;;;;;;;28.05;30.69;97644.78;10284604;28;20063;-71
2023/08/09 11:55:42;;;;;;;0.30;0.10;;;;;;;28.99;30.58;97632.88;10258577;28;20091;-72
2023/08/09 12:01:20;;;;;;;0.37;0.20;;;;;;;28.90;29.65;97640.13;10276822;28;20051;-73
2023/08/09 12:06:47;;;;;;;0.22;0.10;;;;;;;29.16;29.81;97639.94;10272627;28;20390;-72
2023/08/09 12:12:19;;;;;;;0.40;0.17;;;;;;;29.57;28.88;97643.19;10252436;28;20067;-73
2023/08/09 12:17:39;;;;;;;2.97;0.20;;;;;;;28.54;29.17;97646.78;10290321;28;20089;-71
2023/08/09 12:23:00;;;;;;;0.52;0.20;;;;;;;26.82;32.05;97657.72;10287270;28;20067;-72
2023/08/09 12:28:24;;;;;;;1.20;0.20;;;;;;;26.24;33.36;97665.38;10291620;28;20386;-74
2023/08/09 12:33:44;;;;;;;0.73;0.20;;;;;;;26.09;34.63;97666.75;10266759;28;20501;-72
2023/08/09 12:39:10;;;;;;;0.60;0.20;;;;;;;26.97;34.06;97673.50;10275375;28;20123;-72
2023/08/09 12:44:32;;;;;;;0.50;0.20;;;;;;;27.06;32.76;97677.13;10262320;28;20047;-71
2023/08/09 12:49:53;;;;;;;1.77;0.30;;;;;;;26.95;32.34;97676.38;10272094;28;20083;-73
2023/08/09 12:55:14;;;;;;;0.40;0.30;;;;;;;27.34;31.73;97671.41;10268462;28;20045;-71
2023/08/09 13:00:35;;;;;;;0.63;0.20;;;;;;;26.99;30.97;97681.38;10244842;29;20109;-72
2023/08/09 13:05:56;;;;;;;0.60;0.22;;;;;;;26.71;30.91;97679.19;10271885;28;20119;-74
2023/08/09 13:11:17;;;;;;;0.35;0.20;;;;;;;26.03;31.53;97663.16;10303972;28;20099;-73
2023/08/09 13:16:38;;;;;;;0.50;0.20;;;;;;;26.24;31.12;97673.25;10281038;28;20042;-74
2023/08/09 13:21:59;;;;;;;0.70;0.20;;;;;;;25.66;31.72;97680.75;10294529;28;20177;-74
2023/08/09 13:27:21;;;;;;;2.27;0.27;;;;;;;26.27;31.59;97691.16;10294439;28;20101;-74
2023/08/09 13:32:42;;;;;;;2.15;0.20;;;;;;;26.45;30.94;97682.69;10293651;28;20472;-74
2023/08/09 13:38:04;;;;;;;0.35;0.20;;;;;;;26.18;30.59;97678.97;10266794;28;20042;-74
2023/08/09 13:43:25;;;;;;;1.13;0.30;;;;;;;26.00;30.35;97693.16;10293227;28;20122;-74
2023/08/09 13:48:46;;;;;;;1.17;0.22;;;;;;;26.06;29.91;97696.06;10292762;28;20066;-75
2023/08/09 13:54:08;;;;;;;1.92;0.30;;;;;;;25.80;29.82;97688.03;10293182;28;20074;-74
2023/08/09 13:59:29;;;;;;;1.20;0.30;;;;;;;25.53;29.92;97689.97;10279642;28;20086;-74
2023/08/09 14:04:50;;;;;;;0.73;0.30;;;;;;;25.37;30.12;97688.41;10293623;28;20046;-74
2023/08/09 14:10:11;;;;;;;0.93;0.30;;;;;;;25.44;29.69;97694.19;10292533;28;20074;-74
2023/08/09 14:15:32;;;;;;;0.80;0.22;;;;;;;25.31;29.40;97691.22;10292515;28;20528;-74
2023/08/09 14:20:53;;;;;;;0.93;0.20;;;;;;;25.21;29.42;97708.28;10292184;28;20434;-74
2023/08/09 14:26:14;;;;;;;1.23;0.20;;;;;;;24.94;29.34;97709.41;10278722;28;20070;-74
2023/08/09 14:31:35;;;;;;;1.00;0.30;;;;;;;24.64;29.69;97699.09;10291990;28;20132;-74
2023/08/09 14:36:56;;;;;;;3.30;0.30;;;;;;;24.27;29.84;97707.19;10278556;28;20085;-74
2023/08/09 14:42:18;;;;;;;0.88;0.30;;;;;;;23.64;30.73;97712.00;10291982;28;20117;-74
2023/08/09 14:47:39;;;;;;;1.20;0.40;;;;;;;23.26;32.03;97725.56;10291620;28;20130;-74
2023/08/09 14:53:00;;;;;;;1.40;0.30;;;;;;;23.15;32.42;97724.69;10291821;28;20549;-74
2023/08/09 14:58:21;;;;;;;1.48;0.40;;;;;;;23.05;32.58;97733.75;10296111;28;20133;-74
2023/08/09 15:03:42;;;;;;;1.55;0.30;;;;;;;23.16;32.68;97731.09;10299286;28;20066;-74
2023/08/09 15:09:03;;;;;;;0.68;0.30;;;;;;;22.96;33.14;97728.59;10299180;28;20073;-74
2023/08/09 15:14:24;;;;;;;1.08;0.40;;;;;;;22.85;33.08;97742.63;10285464;28;20114;-74
2023/08/09 15:19:45;;;;;;;1.02;0.35;;;;;;;22.50;33.55;97746.19;10285295;28;20114;-74
2023/08/09 15:25:19;;;;;;;2.97;0.20;;;;;;;22.49;33.75;97754.00;10285077;28;20497;-74
2023/08/09 15:30:40;;;;;;;1.42;0.50;;;;;;;22.49;33.98;97744.75;10284823;28;20126;-73
2023/08/09 15:36:01;;;;;;;1.90;0.30;;;;;;;22.54;33.96;97746.97;10298058;28;20078;-74
2023/08/09 15:41:22;;;;;;;1.27;0.30;;;;;;;22.52;33.86;97746.94;10298865;28;20043;-73
2023/08/09 15:46:43;;;;;;;0.98;0.30;;;;;;;22.48;33.81;97746.84;10284478;28;20070;-74
2023/08/09 15:52:04;;;;;;;0.70;0.20;;;;;;;22.59;33.63;97747.09;10283765;28;20178;-74
2023/08/09 15:57:24;;;;;;;1.38;0.30;;;;;;;22.42;33.52;97757.41;10297381;28;20070;-74
2023/08/09 16:02:45;;;;;;;1.50;0.40;;;;;;;22.18;33.32;97766.09;10297035;28;20049;-74
2023/08/09 16:08:06;;;;;;;1.67;0.30;;;;;;;22.10;33.70;97757.38;10282432;28;20493;-74
2023/08/09 16:13:27;;;;;;;0.82;0.40;;;;;;;21.93;33.63;97765.53;10296699;28;20442;-73
2023/08/09 16:18:48;;;;;;;1.80;0.30;;;;;;;21.74;33.67;97772.19;10282909;28;20066;-73
2023/08/09 16:24:09;;;;;;;0.70;0.25;;;;;;;21.59;34.29;97765.44;10282913;28;20081;-74
2023/08/09 16:29:32;;;;;;;0.80;0.32;;;;;;;21.44;33.79;97772.16;10296231;28;20186;-74
2023/08/09 16:34:53;;;;;;;1.43;0.30;;;;;;;21.26;34.06;97775.25;10296073;28;20042;-74
2023/08/09 16:40:14;;;;;;;0.73;0.50;;;;;;;21.12;34.08;97783.34;10295734;28;20074;-74
2023/08/09 16:45:35;;;;;;;0.77;0.32;;;;;;;20.90;34.51;97791.28;10295717;28;20118;-74
2023/08/09 16:50:55;;;;;;;1.45;0.50;;;;;;;20.67;34.41;97799.16;10281910;28;20138;-74
2023/08/09 16:56:16;;;;;;;1.73;0.30;;;;;;;20.42;35.05;97808.31;10295259;28;20067;-73
2023/08/09 17:01:37;;;;;;;1.67;0.30;;;;;;;20.24;35.04;97812.03;10294945;28;20139;-74
2023/08/09 17:06:58;;;;;;;0.70;0.30;;;;;;;19.97;35.19;97824.66;10294740;28;20077;-74
2023/08/09 17:12:18;;;;;;;1.13;0.40;;;;;;;19.81;35.68;97835.47;10281256;28;20536;-73
2023/08/09 17:17:39;;;;;;;2.05;0.50;;;;;;;19.52;36.58;97833.78;10294252;28;20185;-74
2023/08/09 17:23:00;;;;;;;1.52;0.50;;;;;;;19.32;36.95;97844.41;10295228;28;20070;-73
2023/08/09 17:28:21;;;;;;;1.55;0.55;;;;;;;19.16;37.07;97848.09;10294864;28;20145;-74
2023/08/09 17:33:41;;;;;;;0.85;0.30;;;;;;;19.07;37.94;97845.63;10294917;28;20081;-74
2023/08/09 17:39:02;;;;;;;3.03;0.35;;;;;;;18.95;37.97;97857.25;10294441;28;20454;-74
2023/08/09 17:44:24;;;;;;;1.45;0.40;;;;;;;18.80;38.19;97869.41;10280018;28;20050;-74
2023/08/09 17:49:45;;;;;;;1.27;0.40;;;;;;;18.57;38.86;97879.84;10293309;28;20183;-74
2023/08/09 17:55:06;;;;;;;1.70;0.50;;;;;;;18.37;39.32;97884.00;10279304;28;20047;-73
2023/08/09 18:00:27;;;;;;;1.85;0.70;;;;;;;18.20;40.16;97891.81;10292994;28;20066;-73
2023/08/09 18:05:49;;;;;;;1.20;0.50;;;;;;;18.03;40.09;97886.88;10293351;28;20126;-74
2023/08/09 18:11:10;;;;;;;1.33;0.30;;;;;;;17.87;40.81;97903.91;10293482;28;20118;-73
2023/08/09 18:16:30;;;;;;;2.35;0.50;;;;;;;17.67;41.05;97908.69;10278628;28;20062;-73
2023/08/09 18:21:51;;;;;;;2.30;0.32;;;;;;;17.53;41.54;97927.81;10278871;28;20121;-73
2023/08/09 18:27:12;;;;;;;2.78;0.60;;;;;;;17.36;41.82;97918.63;10292352;28;20125;-74
2023/08/09 18:32:33;;;;;;;2.10;0.52;;;;;;;17.15;42.36;97927.56;10292335;28;20512;-73
2023/08/09 18:37:54;;;;;;;2.30;0.50;;;;;;;16.98;42.83;97931.03;10265201;28;20146;-73
2023/08/09 18:43:14;;;;;;;1.77;0.60;;;;;;;16.76;43.06;97937.09;10292681;28;20066;-73
2023/08/09 18:48:36;;;;;;;0.90;0.40;;;;;;;16.55;43.70;97945.94;10291835;28;20058;-74
2023/08/09 18:53:57;;;;;;;1.70;0.50;;;;;;;16.38;43.94;97954.97;10278091;28;20114;-72
2023/08/09 18:59:17;;;;;;;2.83;0.35;;;;;;;16.27;44.36;97979.13;10292371;28;20138;-73
2023/08/09 19:04:38;;;;;;;2.13;0.50;;;;;;;16.12;44.56;97972.06;10292297;28;20466;-73
2023/08/09 19:10:00;;;;;;;1.33;0.65;;;;;;;15.99;45.14;97984.81;10291433;28;20520;-73
2023/08/09 19:15:21;;;;;;;2.33;0.60;;;;;;;15.88;45.53;97991.28;10278152;28;20046;-73
2023/08/09 19:20:45;;;;;;;2.03;0.70;;;;;;;15.73;45.99;97998.28;10292283;28;20121;-73
2023/08/09 19:26:07;;;;;;;2.65;0.60;;;;;;;15.62;46.76;98001.91;10291740;28;20047;-74
2023/08/09 19:31:27;;;;;;;1.20;0.50;;;;;;;15.46;47.07;97998.25;10277719;28;20113;-73
2023/08/09 19:36:48;;;;;;;5.22;0.70;;;;;;;15.37;47.19;98018.84;10291121;28;20067;-73
2023/08/09 19:42:10;;;;;;;1.67;0.50;;;;;;;15.28;47.73;98017.69;10290825;28;20046;-73
2023/08/09 19:47:31;;;;;;;2.55;0.50;;;;;;;15.22;48.06;98020.16;10299032;28;20074;-73
2023/08/09 19:52:53;;;;;;;1.42;0.60;;;;;;;15.16;48.12;98033.91;10298352;28;20043;-73
2023/08/09 19:58:14;;;;;;;1.65;0.40;;;;;;;15.12;48.53;98039.31;10297636;28;20490;-73
2023/08/09 20:03:35;;;;;;;1.63;0.52;;;;;;;14.96;48.67;98027.94;10284113;28;20062;-73
2023/08/09 20:08:55;;;;;;;1.20;0.40;;;;;;;14.86;49.19;98035.78;10299813;28;20453;-78
2023/08/09 20:14:16;;;;;;;2.08;0.50;;;;;;;14.78;49.80;98040.97;10303185;28;20073;-73
2023/08/09 20:19:37;;;;;;;2.63;0.55;;;;;;;14.66;50.01;98034.66;10297342;28;20114;-73
2023/08/09 20:24:58;;;;;;;2.40;0.65;;;;;;;14.60;50.72;98043.47;10283574;28;20118;-74
2023/08/09 20:30:19;;;;;;;0.98;0.40;;;;;;;14.52;50.80;98049.38;10297899;28;20113;-73
2023/08/09 20:35:40;;;;;;;2.85;0.50;;;;;;;14.50;50.90;98051.34;10296272;28;20074;-73
2023/08/09 20:41:01;;;;;;;2.28;0.40;;;;;;;14.47;50.94;98052.53;10296128;28;20050;-73
2023/08/09 20:46:21;;;;;;;2.08;0.50;;;;;;;14.38;51.16;98045.72;10282380;28;20070;-73
2023/08/09 20:51:42;;;;;;;1.50;0.45;;;;;;;14.28;51.56;98059.16;10282418;28;20562;-73
2023/08/09 20:57:03;;;;;;;2.97;0.45;;;;;;;14.18;51.86;98062.09;10281403;28;20066;-73
2023/08/09 21:02:25;;;;;;;1.75;0.45;;;;;;;14.15;52.17;98068.22;10281759;28;20117;-73
2023/08/09 21:07:46;;;;;;;2.22;0.40;;;;;;;14.06;52.55;98072.63;10295099;28;20058;-73
2023/08/09 21:13:07;;;;;;;1.85;0.47;;;;;;;13.95;52.96;98074.09;10295785;28;20071;-73
2023/08/09 21:18:28;;;;;;;2.08;0.70;;;;;;;13.85;53.18;98081.19;10295658;28;20117;-73
2023/08/09 21:23:48;;;;;;;1.23;0.50;;;;;;;13.72;53.48;98088.88;10267487;28;20129;-73
2023/08/09 21:29:13;;;;;;;2.10;0.60;;;;;;;13.64;54.14;98090.47;10294272;28;20066;-73
2023/08/09 21:34:35;;;;;;;1.67;0.50;;;;;;;13.61;54.20;98083.28;10294280;28;20070;-73
2023/08/09 21:39:56;;;;;;;2.47;0.75;;;;;;;13.56;54.49;98101.19;10280371;28;20117;-73
2023/08/09 21:45:17;;;;;;;1.27;0.47;;;;;;;13.57;54.48;98102.63;10280349;28;20118;-73
2023/08/09 21:50:38;;;;;;;1.52;0.40;;;;;;;13.60;54.66;98102.16;10280026;28;20054;-73
2023/08/09 21:55:58;;;;;;;1.13;0.57;;;;;;;13.45;54.63;98092.16;10293537;28;20097;-73
2023/08/09 22:01:21;;;;;;;1.33;0.60;;;;;;;13.26;55.03;98095.16;10292892;28;20058;-73
2023/08/09 22:06:42;;;;;;;2.20;0.70;;;;;;;13.13;55.31;98096.44;10292261;28;20050;-72
2023/08/09 22:12:03;;;;;;;1.70;0.50;;;;;;;13.01;55.65;98100.53;10294767;28;20464;-73
2023/08/09 22:17:24;;;;;;;2.47;0.63;;;;;;;12.98;55.96;98098.94;10279370;28;20118;-73
2023/08/09 22:22:45;;;;;;;3.63;0.70;;;;;;;12.94;56.09;98098.69;10279336;28;20043;-73
2023/08/09 22:28:11;;;;;;;1.95;0.60;;;;;;;12.86;56.44;98102.44;10279064;28;20792;-73
2023/08/09 22:33:32;;;;;;;2.00;0.70;;;;;;;12.78;56.76;98118.00;10292435;28;20054;-73
2023/08/09 22:38:53;;;;;;;1.48;0.70;;;;;;;12.70;57.10;98117.47;10293011;28;20141;-72
2023/08/09 22:44:14;;;;;;;2.05;0.52;;;;;;;12.61;57.37;98111.31;10292982;28;20109;-72
2023/08/09 22:49:36;;;;;;;3.47;0.70;;;;;;;12.53;57.60;98112.84;10278659;28;20054;-72
2023/08/09 22:54:57;;;;;;;1.42;0.60;;;;;;;12.48;57.58;98097.13;10278483;28;20063;-73
2023/08/09 23:00:17;;;;;;;1.70;0.55;;;;;;;12.45;58.27;98095.53;10291782;28;20083;-73
2023/08/09 23:05:38;;;;;;;1.58;0.60;;;;;;;12.47;58.50;98102.00;10278246;28;20058;-73
2023/08/09 23:11:02;;;;;;;1.88;0.50;;;;;;;12.49;58.61;98116.13;10278552;28;20070;-73
2023/08/09 23:16:23;;;;;;;1.95;0.50;;;;;;;12.44;58.83;98119.25;10278475;28;20073;-73
2023/08/09 23:21:44;;;;;;;2.10;0.50;;;;;;;12.37;59.16;98109.00;10285802;28;20105;-73
2023/08/09 23:27:05;;;;;;;2.28;0.50;;;;;;;12.27;59.49;98118.19;10298960;28;20070;-73
2023/08/09 23:32:26;;;;;;;1.98;0.60;;;;;;;12.27;59.61;98121.00;10285137;28;20066;-73
2023/08/09 23:37:47;;;;;;;3.35;0.80;;;;;;;12.27;59.54;98106.28;10298438;28;20043;-73
2023/08/09 23:43:07;;;;;;;2.15;0.50;;;;;;;12.34;59.71;98122.13;10298369;28;20098;-73
2023/08/09 23:48:28;;;;;;;4.70;0.57;;;;;;;12.41;59.45;98120.47;10299539;28;20047;-73
2023/08/09 23:53:49;;;;;;;1.48;0.70;;;;;;;12.37;59.91;98117.41;10298010;28;20097;-73
2023/08/09 23:59:10;;;;;;;2.63;0.40;;;;;;;12.39;60.08;98121.06;10298462;28;20055;-73
